sensor_id;sensor_type;location;lat;lon;timestamp;temperature;humidity
20732;DHT22;10527;52.124;5.196;2022-07-10T00:00:30;16.00;99.90
20732;DHT22;10527;52.124;5.196;2022-07-10T00:02:58;16.10;99.90
20732;DHT22;10527;52.124;5.196;2022-07-10T00:05:26;16.00;99.90
20732;DHT22;10527;52.124;5.196;2022-07-10T00:07:53;16.00;99.90
20732;DHT22;10527;52.124;5.196;2022-07-10T00:10:23;16.00;99.90
20732;DHT22;10527;52.124;5.196;2022-07-10T00:12:51;16.00;99.90
20732;DHT22;10527;52.124;5.196;2022-07-10T00:15:18;15.90;99.90
20732;DHT22;10527;52.124;5.196;2022-07-10T00:17:47;15.90;99.90
20732;DHT22;10527;52.124;5.196;2022-07-10T00:23:28;15.90;99.90
20732;DHT22;10527;52.124;5.196;2022-07-10T00:25:55;15.90;99.90
20732;DHT22;10527;52.124;5.196;2022-07-10T00:28:22;15.90;99.90
20732;DHT22;10527;52.124;5.196;2022-07-10T00:30:49;15.80;99.90
20732;DHT22;10527;52.124;5.196;2022-07-10T00:33:16;15.80;99.90
20732;DHT22;10527;52.124;5.196;2022-07-10T00:35:43;15.70;99.90
20732;DHT22;10527;52.124;5.196;2022-07-10T00:38:10;15.70;99.90
20732;DHT22;10527;52.124;5.196;2022-07-10T00:40:36;15.70;99.90
20732;DHT22;10527;52.124;5.196;2022-07-10T00:43:16;15.60;99.90
20732;DHT22;10527;52.124;5.196;2022-07-10T00:45:43;15.50;99.90
20732;DHT22;10527;52.124;5.196;2022-07-10T00:48:10;15.50;99.90
20732;DHT22;10527;52.124;5.196;2022-07-10T00:50:36;15.40;99.90
20732;DHT22;10527;52.124;5.196;2022-07-10T00:53:04;15.40;99.90
20732;DHT22;10527;52.124;5.196;2022-07-10T00:55:43;15.40;99.90
20732;DHT22;10527;52.124;5.196;2022-07-10T00:58:12;15.40;99.90
20732;DHT22;10527;52.124;5.196;2022-07-10T01:00:42;15.40;99.90
20732;DHT22;10527;52.124;5.196;2022-07-10T01:03:08;15.50;99.90
20732;DHT22;10527;52.124;5.196;2022-07-10T01:05:37;15.60;99.90
20732;DHT22;10527;52.124;5.196;2022-07-10T01:08:04;15.60;99.90
20732;DHT22;10527;52.124;5.196;2022-07-10T01:10:31;15.60;99.90
20732;DHT22;10527;52.124;5.196;2022-07-10T01:13:10;15.60;99.90
20732;DHT22;10527;52.124;5.196;2022-07-10T01:15:37;15.70;99.90
20732;DHT22;10527;52.124;5.196;2022-07-10T01:18:04;15.60;99.90
20732;DHT22;10527;52.124;5.196;2022-07-10T01:20:32;15.60;99.90
20732;DHT22;10527;52.124;5.196;2022-07-10T01:23:00;15.60;99.90
20732;DHT22;10527;52.124;5.196;2022-07-10T01:25:28;15.60;99.90
20732;DHT22;10527;52.124;5.196;2022-07-10T01:28:09;15.70;99.90
20732;DHT22;10527;52.124;5.196;2022-07-10T01:30:36;15.70;99.90
20732;DHT22;10527;52.124;5.196;2022-07-10T01:33:03;15.70;99.90
20732;DHT22;10527;52.124;5.196;2022-07-10T01:35:31;15.70;99.90
20732;DHT22;10527;52.124;5.196;2022-07-10T01:37:57;15.70;99.90
20732;DHT22;10527;52.124;5.196;2022-07-10T01:40:24;15.70;99.90
20732;DHT22;10527;52.124;5.196;2022-07-10T01:42:51;15.80;99.90
20732;DHT22;10527;52.124;5.196;2022-07-10T01:45:18;15.80;99.90
20732;DHT22;10527;52.124;5.196;2022-07-10T01:48:02;15.70;99.90
20732;DHT22;10527;52.124;5.196;2022-07-10T01:50:29;15.70;99.90
20732;DHT22;10527;52.124;5.196;2022-07-10T01:52:56;15.70;99.90
20732;DHT22;10527;52.124;5.196;2022-07-10T01:55:24;15.70;99.90
20732;DHT22;10527;52.124;5.196;2022-07-10T01:57:50;15.70;99.90
20732;DHT22;10527;52.124;5.196;2022-07-10T02:00:31;15.70;99.90
20732;DHT22;10527;52.124;5.196;2022-07-10T02:02:58;15.60;99.90
20732;DHT22;10527;52.124;5.196;2022-07-10T02:05:56;15.60;99.90
20732;DHT22;10527;52.124;5.196;2022-07-10T02:08:24;15.70;99.90
20732;DHT22;10527;52.124;5.196;2022-07-10T02:10:50;15.60;99.90
20732;DHT22;10527;52.124;5.196;2022-07-10T02:13:19;15.60;99.90
20732;DHT22;10527;52.124;5.196;2022-07-10T02:15:47;15.60;99.90
20732;DHT22;10527;52.124;5.196;2022-07-10T02:18:14;15.50;99.90
20732;DHT22;10527;52.124;5.196;2022-07-10T02:20:41;15.50;99.90
20732;DHT22;10527;52.124;5.196;2022-07-10T02:23:08;15.60;99.90
20732;DHT22;10527;52.124;5.196;2022-07-10T02:25:35;15.50;99.90
20732;DHT22;10527;52.124;5.196;2022-07-10T02:28:01;15.50;99.90
20732;DHT22;10527;52.124;5.196;2022-07-10T02:30:29;15.60;99.90
20732;DHT22;10527;52.124;5.196;2022-07-10T02:33:06;15.50;99.90
20732;DHT22;10527;52.124;5.196;2022-07-10T02:35:32;15.50;99.90
20732;DHT22;10527;52.124;5.196;2022-07-10T02:37:59;15.60;99.90
20732;DHT22;10527;52.124;5.196;2022-07-10T02:40:27;15.60;99.90
20732;DHT22;10527;52.124;5.196;2022-07-10T02:42:54;15.60;99.90
20732;DHT22;10527;52.124;5.196;2022-07-10T02:45:21;15.60;99.90
20732;DHT22;10527;52.124;5.196;2022-07-10T02:47:47;15.70;99.90
20732;DHT22;10527;52.124;5.196;2022-07-10T02:50:28;15.60;99.90
20732;DHT22;10527;52.124;5.196;2022-07-10T02:52:55;15.70;99.90
20732;DHT22;10527;52.124;5.196;2022-07-10T02:55:26;15.70;99.90
20732;DHT22;10527;52.124;5.196;2022-07-10T02:57:53;15.70;99.90
20732;DHT22;10527;52.124;5.196;2022-07-10T03:00:20;15.70;99.90
20732;DHT22;10527;52.124;5.196;2022-07-10T03:02:47;15.80;99.90
20732;DHT22;10527;52.124;5.196;2022-07-10T03:05:14;15.70;99.90
20732;DHT22;10527;52.124;5.196;2022-07-10T03:07:40;15.70;99.90
20732;DHT22;10527;52.124;5.196;2022-07-10T03:10:18;15.70;99.90
20732;DHT22;10527;52.124;5.196;2022-07-10T03:12:45;15.60;99.90
20732;DHT22;10527;52.124;5.196;2022-07-10T03:15:26;15.70;99.90
20732;DHT22;10527;52.124;5.196;2022-07-10T03:17:53;15.70;99.90
20732;DHT22;10527;52.124;5.196;2022-07-10T03:23:32;15.80;99.90
20732;DHT22;10527;52.124;5.196;2022-07-10T03:26:00;15.80;99.90
20732;DHT22;10527;52.124;5.196;2022-07-10T03:28:26;15.80;99.90
20732;DHT22;10527;52.124;5.196;2022-07-10T03:30:53;15.80;99.90
20732;DHT22;10527;52.124;5.196;2022-07-10T03:33:20;15.70;99.90
20732;DHT22;10527;52.124;5.196;2022-07-10T03:35:52;15.50;99.90
20732;DHT22;10527;52.124;5.196;2022-07-10T03:38:20;15.60;99.90
20732;DHT22;10527;52.124;5.196;2022-07-10T03:40:47;15.50;99.90
20732;DHT22;10527;52.124;5.196;2022-07-10T03:43:15;15.60;99.90
20732;DHT22;10527;52.124;5.196;2022-07-10T03:45:42;15.60;99.90
20732;DHT22;10527;52.124;5.196;2022-07-10T03:48:09;15.70;99.90
20732;DHT22;10527;52.124;5.196;2022-07-10T03:50:41;15.60;99.90
20732;DHT22;10527;52.124;5.196;2022-07-10T03:53:08;15.60;99.90
20732;DHT22;10527;52.124;5.196;2022-07-10T03:55:35;15.60;99.90
20732;DHT22;10527;52.124;5.196;2022-07-10T03:58:06;15.60;99.90
20732;DHT22;10527;52.124;5.196;2022-07-10T04:00:33;15.70;99.90
20732;DHT22;10527;52.124;5.196;2022-07-10T04:03:04;15.70;99.90
20732;DHT22;10527;52.124;5.196;2022-07-10T04:05:33;15.60;99.90
20732;DHT22;10527;52.124;5.196;2022-07-10T04:08:01;15.60;99.90
20732;DHT22;10527;52.124;5.196;2022-07-10T04:10:30;15.60;99.90
20732;DHT22;10527;52.124;5.196;2022-07-10T04:13:00;15.60;99.90
20732;DHT22;10527;52.124;5.196;2022-07-10T04:15:27;15.60;99.90
20732;DHT22;10527;52.124;5.196;2022-07-10T04:17:54;15.70;99.90
20732;DHT22;10527;52.124;5.196;2022-07-10T04:20:23;15.80;99.90
20732;DHT22;10527;52.124;5.196;2022-07-10T04:23:10;15.80;99.90
20732;DHT22;10527;52.124;5.196;2022-07-10T04:25:37;15.80;99.90
20732;DHT22;10527;52.124;5.196;2022-07-10T04:28:04;15.70;99.90
20732;DHT22;10527;52.124;5.196;2022-07-10T04:30:40;15.80;99.90
20732;DHT22;10527;52.124;5.196;2022-07-10T04:33:06;15.90;99.90
20732;DHT22;10527;52.124;5.196;2022-07-10T04:35:33;15.90;99.90
20732;DHT22;10527;52.124;5.196;2022-07-10T04:38:00;15.90;99.90
20732;DHT22;10527;52.124;5.196;2022-07-10T04:40:27;15.90;99.90
20732;DHT22;10527;52.124;5.196;2022-07-10T04:42:53;16.00;99.90
20732;DHT22;10527;52.124;5.196;2022-07-10T04:45:20;16.10;99.90
20732;DHT22;10527;52.124;5.196;2022-07-10T04:47:47;16.10;99.90
20732;DHT22;10527;52.124;5.196;2022-07-10T04:50:14;16.10;99.90
20732;DHT22;10527;52.124;5.196;2022-07-10T04:52:42;16.10;99.90
20732;DHT22;10527;52.124;5.196;2022-07-10T04:55:09;16.00;99.90
20732;DHT22;10527;52.124;5.196;2022-07-10T04:57:36;16.10;99.90
20732;DHT22;10527;52.124;5.196;2022-07-10T05:00:04;16.00;99.90
20732;DHT22;10527;52.124;5.196;2022-07-10T05:02:31;16.10;99.90
20732;DHT22;10527;52.124;5.196;2022-07-10T05:04:59;16.10;99.90
20732;DHT22;10527;52.124;5.196;2022-07-10T05:07:26;16.10;99.90
20732;DHT22;10527;52.124;5.196;2022-07-10T05:09:55;16.10;99.90
20732;DHT22;10527;52.124;5.196;2022-07-10T05:12:22;16.10;99.90
20732;DHT22;10527;52.124;5.196;2022-07-10T05:14:48;16.10;99.90
20732;DHT22;10527;52.124;5.196;2022-07-10T05:20:37;16.00;99.90
20732;DHT22;10527;52.124;5.196;2022-07-10T05:26:06;16.10;99.90
20732;DHT22;10527;52.124;5.196;2022-07-10T05:28:33;16.10;99.90
20732;DHT22;10527;52.124;5.196;2022-07-10T05:31:12;16.00;99.90
20732;DHT22;10527;52.124;5.196;2022-07-10T05:33:39;16.10;99.90
20732;DHT22;10527;52.124;5.196;2022-07-10T05:36:13;16.00;99.90
20732;DHT22;10527;52.124;5.196;2022-07-10T05:38:40;16.10;99.90
20732;DHT22;10527;52.124;5.196;2022-07-10T05:41:07;16.10;99.90
20732;DHT22;10527;52.124;5.196;2022-07-10T05:43:34;16.10;99.90
20732;DHT22;10527;52.124;5.196;2022-07-10T05:46:01;16.20;99.90
20732;DHT22;10527;52.124;5.196;2022-07-10T05:48:27;16.10;99.90
20732;DHT22;10527;52.124;5.196;2022-07-10T05:50:54;16.20;99.90
20732;DHT22;10527;52.124;5.196;2022-07-10T05:56:53;16.20;99.90
20732;DHT22;10527;52.124;5.196;2022-07-10T05:59:20;16.20;99.90
20732;DHT22;10527;52.124;5.196;2022-07-10T06:01:46;16.30;99.90
20732;DHT22;10527;52.124;5.196;2022-07-10T06:04:16;16.30;99.90
20732;DHT22;10527;52.124;5.196;2022-07-10T06:06:44;16.30;99.90
20732;DHT22;10527;52.124;5.196;2022-07-10T06:09:13;16.30;99.90
20732;DHT22;10527;52.124;5.196;2022-07-10T06:11:39;16.20;99.90
20732;DHT22;10527;52.124;5.196;2022-07-10T06:14:08;16.20;99.90
20732;DHT22;10527;52.124;5.196;2022-07-10T06:16:35;16.20;99.90
20732;DHT22;10527;52.124;5.196;2022-07-10T06:19:01;16.30;99.90
20732;DHT22;10527;52.124;5.196;2022-07-10T06:21:28;16.30;99.90
20732;DHT22;10527;52.124;5.196;2022-07-10T06:23:55;16.20;99.90
20732;DHT22;10527;52.124;5.196;2022-07-10T06:26:22;16.20;99.90
20732;DHT22;10527;52.124;5.196;2022-07-10T06:28:49;16.20;99.90
20732;DHT22;10527;52.124;5.196;2022-07-10T06:31:17;16.30;99.90
20732;DHT22;10527;52.124;5.196;2022-07-10T06:33:44;16.40;99.90
20732;DHT22;10527;52.124;5.196;2022-07-10T06:36:11;16.40;99.90
20732;DHT22;10527;52.124;5.196;2022-07-10T06:38:39;16.40;99.90
20732;DHT22;10527;52.124;5.196;2022-07-10T06:41:07;16.50;99.90
20732;DHT22;10527;52.124;5.196;2022-07-10T06:43:33;16.50;99.90
20732;DHT22;10527;52.124;5.196;2022-07-10T06:46:00;16.50;99.90
20732;DHT22;10527;52.124;5.196;2022-07-10T06:48:27;16.60;99.90
20732;DHT22;10527;52.124;5.196;2022-07-10T06:50:54;16.60;99.90
20732;DHT22;10527;52.124;5.196;2022-07-10T06:53:24;16.70;99.90
20732;DHT22;10527;52.124;5.196;2022-07-10T06:55:53;16.70;99.90
20732;DHT22;10527;52.124;5.196;2022-07-10T06:58:22;16.60;99.90
20732;DHT22;10527;52.124;5.196;2022-07-10T07:00:50;16.70;99.90
20732;DHT22;10527;52.124;5.196;2022-07-10T07:03:17;16.80;99.90
20732;DHT22;10527;52.124;5.196;2022-07-10T07:05:44;16.80;99.90
20732;DHT22;10527;52.124;5.196;2022-07-10T07:08:11;16.80;99.90
20732;DHT22;10527;52.124;5.196;2022-07-10T07:10:55;16.90;99.90
20732;DHT22;10527;52.124;5.196;2022-07-10T07:13:23;16.90;99.90
20732;DHT22;10527;52.124;5.196;2022-07-10T07:15:50;16.90;99.90
20732;DHT22;10527;52.124;5.196;2022-07-10T07:18:27;16.90;99.90
20732;DHT22;10527;52.124;5.196;2022-07-10T07:21:10;17.00;99.90
20732;DHT22;10527;52.124;5.196;2022-07-10T07:23:55;17.10;99.90
20732;DHT22;10527;52.124;5.196;2022-07-10T07:26:22;17.10;99.90
20732;DHT22;10527;52.124;5.196;2022-07-10T07:28:56;17.10;99.90
20732;DHT22;10527;52.124;5.196;2022-07-10T07:31:23;17.20;99.90
20732;DHT22;10527;52.124;5.196;2022-07-10T07:33:50;17.40;99.90
20732;DHT22;10527;52.124;5.196;2022-07-10T07:36:17;17.20;99.90
20732;DHT22;10527;52.124;5.196;2022-07-10T07:38:45;17.20;99.90
20732;DHT22;10527;52.124;5.196;2022-07-10T07:41:12;17.20;99.90
20732;DHT22;10527;52.124;5.196;2022-07-10T07:43:39;17.20;99.90
20732;DHT22;10527;52.124;5.196;2022-07-10T07:46:06;17.20;99.90
20732;DHT22;10527;52.124;5.196;2022-07-10T07:48:33;17.30;99.90
20732;DHT22;10527;52.124;5.196;2022-07-10T07:51:00;17.40;99.90
20732;DHT22;10527;52.124;5.196;2022-07-10T07:53:26;17.20;99.90
20732;DHT22;10527;52.124;5.196;2022-07-10T07:55:53;17.10;99.90
20732;DHT22;10527;52.124;5.196;2022-07-10T07:58:21;17.20;99.90
20732;DHT22;10527;52.124;5.196;2022-07-10T08:00:55;17.10;99.90
20732;DHT22;10527;52.124;5.196;2022-07-10T08:03:23;17.30;99.90
20732;DHT22;10527;52.124;5.196;2022-07-10T08:06:09;17.40;99.90
20732;DHT22;10527;52.124;5.196;2022-07-10T08:08:36;17.40;99.90
20732;DHT22;10527;52.124;5.196;2022-07-10T08:11:04;17.50;99.90
20732;DHT22;10527;52.124;5.196;2022-07-10T08:13:31;17.60;99.90
20732;DHT22;10527;52.124;5.196;2022-07-10T08:16:00;17.50;99.90
20732;DHT22;10527;52.124;5.196;2022-07-10T08:18:34;17.60;99.90
20732;DHT22;10527;52.124;5.196;2022-07-10T08:21:01;17.50;99.90
20732;DHT22;10527;52.124;5.196;2022-07-10T08:23:28;17.50;99.90
20732;DHT22;10527;52.124;5.196;2022-07-10T08:25:55;17.60;99.90
20732;DHT22;10527;52.124;5.196;2022-07-10T08:28:21;17.80;99.90
20732;DHT22;10527;52.124;5.196;2022-07-10T08:30:50;17.80;99.90
20732;DHT22;10527;52.124;5.196;2022-07-10T08:33:19;17.70;99.90
20732;DHT22;10527;52.124;5.196;2022-07-10T08:35:48;17.80;99.90
20732;DHT22;10527;52.124;5.196;2022-07-10T08:38:14;17.80;99.90
20732;DHT22;10527;52.124;5.196;2022-07-10T08:40:44;17.90;99.90
20732;DHT22;10527;52.124;5.196;2022-07-10T08:43:12;18.10;99.90
20732;DHT22;10527;52.124;5.196;2022-07-10T08:45:41;18.20;99.90
20732;DHT22;10527;52.124;5.196;2022-07-10T08:48:09;18.30;99.90
20732;DHT22;10527;52.124;5.196;2022-07-10T08:50:44;18.50;99.90
20732;DHT22;10527;52.124;5.196;2022-07-10T08:53:29;18.80;99.90
20732;DHT22;10527;52.124;5.196;2022-07-10T08:55:58;18.70;99.90
20732;DHT22;10527;52.124;5.196;2022-07-10T08:58:27;18.50;99.90
20732;DHT22;10527;52.124;5.196;2022-07-10T09:00:54;18.80;99.90
20732;DHT22;10527;52.124;5.196;2022-07-10T09:03:20;19.00;99.90
20732;DHT22;10527;52.124;5.196;2022-07-10T09:05:47;19.20;99.90
20732;DHT22;10527;52.124;5.196;2022-07-10T09:08:25;18.80;99.90
20732;DHT22;10527;52.124;5.196;2022-07-10T09:11:19;19.00;99.90
20732;DHT22;10527;52.124;5.196;2022-07-10T09:13:53;19.00;99.90
20732;DHT22;10527;52.124;5.196;2022-07-10T09:16:27;19.00;99.90
20732;DHT22;10527;52.124;5.196;2022-07-10T09:18:57;18.80;99.90
20732;DHT22;10527;52.124;5.196;2022-07-10T09:21:42;19.10;99.90
20732;DHT22;10527;52.124;5.196;2022-07-10T09:24:09;19.10;99.90
20732;DHT22;10527;52.124;5.196;2022-07-10T09:26:37;19.30;99.90
20732;DHT22;10527;52.124;5.196;2022-07-10T09:29:11;19.20;99.90
20732;DHT22;10527;52.124;5.196;2022-07-10T09:31:49;19.20;99.90
20732;DHT22;10527;52.124;5.196;2022-07-10T09:34:39;19.30;99.90
20732;DHT22;10527;52.124;5.196;2022-07-10T09:37:23;19.00;99.90
20732;DHT22;10527;52.124;5.196;2022-07-10T09:42:29;19.20;99.90
20732;DHT22;10527;52.124;5.196;2022-07-10T09:48:04;19.10;99.90
20732;DHT22;10527;52.124;5.196;2022-07-10T09:50:35;19.30;99.90
20732;DHT22;10527;52.124;5.196;2022-07-10T09:53:04;19.30;99.90
20732;DHT22;10527;52.124;5.196;2022-07-10T09:55:34;19.20;99.90
20732;DHT22;10527;52.124;5.196;2022-07-10T09:58:04;19.20;99.90
20732;DHT22;10527;52.124;5.196;2022-07-10T10:00:37;19.20;99.90
20732;DHT22;10527;52.124;5.196;2022-07-10T10:03:07;19.40;99.90
20732;DHT22;10527;52.124;5.196;2022-07-10T10:06:00;19.30;99.90
20732;DHT22;10527;52.124;5.196;2022-07-10T10:09:07;19.40;99.90
20732;DHT22;10527;52.124;5.196;2022-07-10T10:11:40;19.50;99.90
20732;DHT22;10527;52.124;5.196;2022-07-10T10:14:09;19.40;99.90
20732;DHT22;10527;52.124;5.196;2022-07-10T10:16:39;19.30;99.90
20732;DHT22;10527;52.124;5.196;2022-07-10T10:19:11;19.30;99.90
20732;DHT22;10527;52.124;5.196;2022-07-10T10:22:00;19.30;99.90
20732;DHT22;10527;52.124;5.196;2022-07-10T10:24:32;19.30;99.90
20732;DHT22;10527;52.124;5.196;2022-07-10T10:27:01;19.40;99.90
20732;DHT22;10527;52.124;5.196;2022-07-10T10:29:28;19.60;99.90
20732;DHT22;10527;52.124;5.196;2022-07-10T10:31:56;19.50;99.90
20732;DHT22;10527;52.124;5.196;2022-07-10T10:34:44;19.50;99.90
20732;DHT22;10527;52.124;5.196;2022-07-10T10:37:35;19.40;99.90
20732;DHT22;10527;52.124;5.196;2022-07-10T10:40:34;19.70;99.90
20732;DHT22;10527;52.124;5.196;2022-07-10T10:43:17;19.80;99.90
20732;DHT22;10527;52.124;5.196;2022-07-10T10:45:48;19.60;99.90
20732;DHT22;10527;52.124;5.196;2022-07-10T10:48:22;19.80;99.90
20732;DHT22;10527;52.124;5.196;2022-07-10T10:51:05;19.90;99.90
20732;DHT22;10527;52.124;5.196;2022-07-10T10:53:32;19.70;99.90
20732;DHT22;10527;52.124;5.196;2022-07-10T11:07:02;19.70;99.90
20732;DHT22;10527;52.124;5.196;2022-07-10T11:09:31;19.60;99.90
20732;DHT22;10527;52.124;5.196;2022-07-10T11:14:26;20.10;99.90
20732;DHT22;10527;52.124;5.196;2022-07-10T11:16:58;20.00;99.90
20732;DHT22;10527;52.124;5.196;2022-07-10T11:19:29;20.00;99.90
20732;DHT22;10527;52.124;5.196;2022-07-10T11:22:12;20.20;99.90
20732;DHT22;10527;52.124;5.196;2022-07-10T11:24:49;20.10;99.90
20732;DHT22;10527;52.124;5.196;2022-07-10T11:30:17;20.20;99.90
20732;DHT22;10527;52.124;5.196;2022-07-10T11:32:44;20.40;99.90
20732;DHT22;10527;52.124;5.196;2022-07-10T11:35:12;20.60;99.90
20732;DHT22;10527;52.124;5.196;2022-07-10T11:37:58;20.70;99.90
20732;DHT22;10527;52.124;5.196;2022-07-10T11:40:28;20.40;99.90
20732;DHT22;10527;52.124;5.196;2022-07-10T11:42:55;20.40;99.90
20732;DHT22;10527;52.124;5.196;2022-07-10T11:48:04;20.10;99.90
20732;DHT22;10527;52.124;5.196;2022-07-10T11:51:01;20.20;99.90
20732;DHT22;10527;52.124;5.196;2022-07-10T11:53:28;20.20;99.90
20732;DHT22;10527;52.124;5.196;2022-07-10T11:55:55;20.40;99.90
20732;DHT22;10527;52.124;5.196;2022-07-10T11:58:22;20.50;99.90
20732;DHT22;10527;52.124;5.196;2022-07-10T12:01:03;20.60;99.90
20732;DHT22;10527;52.124;5.196;2022-07-10T12:03:34;20.70;99.90
20732;DHT22;10527;52.124;5.196;2022-07-10T12:06:06;20.90;99.90
20732;DHT22;10527;52.124;5.196;2022-07-10T12:08:44;21.00;99.90
20732;DHT22;10527;52.124;5.196;2022-07-10T12:11:15;21.00;99.90
20732;DHT22;10527;52.124;5.196;2022-07-10T12:13:45;21.20;99.90
20732;DHT22;10527;52.124;5.196;2022-07-10T12:16:14;21.20;99.90
20732;DHT22;10527;52.124;5.196;2022-07-10T12:18:42;21.30;99.90
20732;DHT22;10527;52.124;5.196;2022-07-10T12:21:12;21.40;99.90
20732;DHT22;10527;52.124;5.196;2022-07-10T12:23:40;21.20;99.90
20732;DHT22;10527;52.124;5.196;2022-07-10T12:26:09;21.40;99.90
20732;DHT22;10527;52.124;5.196;2022-07-10T12:28:50;21.50;99.90
20732;DHT22;10527;52.124;5.196;2022-07-10T12:31:25;21.70;99.90
20732;DHT22;10527;52.124;5.196;2022-07-10T12:33:56;21.30;99.90
20732;DHT22;10527;52.124;5.196;2022-07-10T12:36:52;21.60;99.90
20732;DHT22;10527;52.124;5.196;2022-07-10T12:39:22;21.90;99.90
20732;DHT22;10527;52.124;5.196;2022-07-10T12:42:03;21.80;99.90
20732;DHT22;10527;52.124;5.196;2022-07-10T12:44:42;22.10;99.90
20732;DHT22;10527;52.124;5.196;2022-07-10T12:47:16;22.00;99.90
20732;DHT22;10527;52.124;5.196;2022-07-10T12:49:57;21.90;99.90
20732;DHT22;10527;52.124;5.196;2022-07-10T12:52:34;22.00;99.90
20732;DHT22;10527;52.124;5.196;2022-07-10T12:57:55;22.30;99.90
20732;DHT22;10527;52.124;5.196;2022-07-10T13:00:28;22.30;99.90
20732;DHT22;10527;52.124;5.196;2022-07-10T13:05:43;21.90;99.90
20732;DHT22;10527;52.124;5.196;2022-07-10T13:08:12;22.10;99.90
20732;DHT22;10527;52.124;5.196;2022-07-10T13:13:19;21.60;99.90
20732;DHT22;10527;52.124;5.196;2022-07-10T13:15:47;21.70;99.90
20732;DHT22;10527;52.124;5.196;2022-07-10T13:18:22;21.70;99.90
20732;DHT22;10527;52.124;5.196;2022-07-10T13:20:53;21.70;99.90
20732;DHT22;10527;52.124;5.196;2022-07-10T13:23:27;21.70;99.90
20732;DHT22;10527;52.124;5.196;2022-07-10T13:25:56;21.60;99.90
20732;DHT22;10527;52.124;5.196;2022-07-10T13:28:23;21.80;99.90
20732;DHT22;10527;52.124;5.196;2022-07-10T13:30:50;21.60;99.90
20732;DHT22;10527;52.124;5.196;2022-07-10T13:33:17;21.50;99.90
20732;DHT22;10527;52.124;5.196;2022-07-10T13:35:45;21.70;99.90
20732;DHT22;10527;52.124;5.196;2022-07-10T13:38:14;21.80;99.90
20732;DHT22;10527;52.124;5.196;2022-07-10T13:40:44;21.90;99.90
20732;DHT22;10527;52.124;5.196;2022-07-10T13:43:14;21.90;99.90
20732;DHT22;10527;52.124;5.196;2022-07-10T13:45:46;22.10;99.90
20732;DHT22;10527;52.124;5.196;2022-07-10T13:48:15;21.90;99.90
20732;DHT22;10527;52.124;5.196;2022-07-10T13:50:44;21.90;99.90
20732;DHT22;10527;52.124;5.196;2022-07-10T13:53:15;21.70;99.90
20732;DHT22;10527;52.124;5.196;2022-07-10T13:55:43;21.60;99.90
20732;DHT22;10527;52.124;5.196;2022-07-10T13:58:12;21.40;99.90
20732;DHT22;10527;52.124;5.196;2022-07-10T14:00:39;21.60;99.90
20732;DHT22;10527;52.124;5.196;2022-07-10T14:03:07;21.60;99.90
20732;DHT22;10527;52.124;5.196;2022-07-10T14:05:34;21.80;99.90
20732;DHT22;10527;52.124;5.196;2022-07-10T14:08:00;21.70;99.90
20732;DHT22;10527;52.124;5.196;2022-07-10T14:10:28;21.70;99.90
20732;DHT22;10527;52.124;5.196;2022-07-10T14:12:57;21.70;99.90
20732;DHT22;10527;52.124;5.196;2022-07-10T14:15:24;21.70;99.90
20732;DHT22;10527;52.124;5.196;2022-07-10T14:17:52;21.70;99.90
20732;DHT22;10527;52.124;5.196;2022-07-10T14:20:19;21.70;99.90
20732;DHT22;10527;52.124;5.196;2022-07-10T14:22:45;21.80;99.90
20732;DHT22;10527;52.124;5.196;2022-07-10T14:25:13;22.10;99.90
20732;DHT22;10527;52.124;5.196;2022-07-10T14:27:41;22.10;99.90
20732;DHT22;10527;52.124;5.196;2022-07-10T14:30:08;22.10;99.90
20732;DHT22;10527;52.124;5.196;2022-07-10T14:32:35;22.00;99.90
20732;DHT22;10527;52.124;5.196;2022-07-10T14:35:03;22.10;99.90
20732;DHT22;10527;52.124;5.196;2022-07-10T14:37:30;22.30;99.90
20732;DHT22;10527;52.124;5.196;2022-07-10T14:39:57;22.40;99.90
20732;DHT22;10527;52.124;5.196;2022-07-10T14:42:23;22.50;99.90
20732;DHT22;10527;52.124;5.196;2022-07-10T14:44:50;22.20;99.90
20732;DHT22;10527;52.124;5.196;2022-07-10T14:47:17;22.30;99.90
20732;DHT22;10527;52.124;5.196;2022-07-10T14:49:44;22.20;99.90
20732;DHT22;10527;52.124;5.196;2022-07-10T14:52:12;22.00;99.90
20732;DHT22;10527;52.124;5.196;2022-07-10T14:54:40;22.20;99.90
20732;DHT22;10527;52.124;5.196;2022-07-10T14:57:07;22.20;99.90
20732;DHT22;10527;52.124;5.196;2022-07-10T14:59:34;22.10;99.90
20732;DHT22;10527;52.124;5.196;2022-07-10T15:02:01;22.20;99.90
20732;DHT22;10527;52.124;5.196;2022-07-10T15:04:28;22.10;99.90
20732;DHT22;10527;52.124;5.196;2022-07-10T15:06:54;22.00;99.90
20732;DHT22;10527;52.124;5.196;2022-07-10T15:09:21;21.80;99.90
20732;DHT22;10527;52.124;5.196;2022-07-10T15:11:48;21.90;99.90
20732;DHT22;10527;52.124;5.196;2022-07-10T15:14:15;21.70;99.90
20732;DHT22;10527;52.124;5.196;2022-07-10T15:16:41;21.70;99.90
20732;DHT22;10527;52.124;5.196;2022-07-10T15:19:09;21.70;99.90
20732;DHT22;10527;52.124;5.196;2022-07-10T15:21:38;21.80;99.90
20732;DHT22;10527;52.124;5.196;2022-07-10T15:24:05;21.70;99.90
20732;DHT22;10527;52.124;5.196;2022-07-10T15:26:32;21.70;99.90
20732;DHT22;10527;52.124;5.196;2022-07-10T15:28:59;21.80;99.90
20732;DHT22;10527;52.124;5.196;2022-07-10T15:31:26;21.80;99.90
20732;DHT22;10527;52.124;5.196;2022-07-10T15:33:53;21.90;99.90
20732;DHT22;10527;52.124;5.196;2022-07-10T15:36:20;21.90;99.90
20732;DHT22;10527;52.124;5.196;2022-07-10T15:38:48;22.00;99.90
20732;DHT22;10527;52.124;5.196;2022-07-10T15:41:15;22.00;99.90
20732;DHT22;10527;52.124;5.196;2022-07-10T15:43:42;21.70;99.90
20732;DHT22;10527;52.124;5.196;2022-07-10T15:46:10;21.70;99.90
20732;DHT22;10527;52.124;5.196;2022-07-10T15:48:40;21.70;99.90
20732;DHT22;10527;52.124;5.196;2022-07-10T15:51:07;21.70;99.90
20732;DHT22;10527;52.124;5.196;2022-07-10T15:53:34;21.80;99.90
20732;DHT22;10527;52.124;5.196;2022-07-10T15:56:01;21.80;99.90
20732;DHT22;10527;52.124;5.196;2022-07-10T15:58:29;21.80;99.90
20732;DHT22;10527;52.124;5.196;2022-07-10T16:00:56;21.90;99.90
20732;DHT22;10527;52.124;5.196;2022-07-10T16:03:23;21.80;99.90
20732;DHT22;10527;52.124;5.196;2022-07-10T16:05:50;21.60;99.90
20732;DHT22;10527;52.124;5.196;2022-07-10T16:08:17;21.70;99.90
20732;DHT22;10527;52.124;5.196;2022-07-10T16:10:48;21.70;99.90
20732;DHT22;10527;52.124;5.196;2022-07-10T16:13:15;21.60;99.90
20732;DHT22;10527;52.124;5.196;2022-07-10T16:15:42;21.50;99.90
20732;DHT22;10527;52.124;5.196;2022-07-10T16:18:10;21.50;99.90
20732;DHT22;10527;52.124;5.196;2022-07-10T16:20:37;21.40;99.90
20732;DHT22;10527;52.124;5.196;2022-07-10T16:23:05;21.30;99.90
20732;DHT22;10527;52.124;5.196;2022-07-10T16:25:34;21.40;99.90
20732;DHT22;10527;52.124;5.196;2022-07-10T16:28:19;21.30;99.90
20732;DHT22;10527;52.124;5.196;2022-07-10T16:30:46;21.30;99.90
20732;DHT22;10527;52.124;5.196;2022-07-10T16:33:13;21.40;99.90
20732;DHT22;10527;52.124;5.196;2022-07-10T16:35:40;21.40;99.90